Time;durP1;ratioP1;P1;durP2;ratioP2;P2;SDS_P1;SDS_P2;PMS_P1;PMS_P2;Temp;Humidity;BMP_temperature;BMP_pressure;BME280_temperature;BME280_humidity;BME280_pressure;Samples;Min_cycle;Max_cycle;Signal;HPM_P1;HPM_P2
2022/04/21 00:00:27;;;;;;;16.13;4.80;;;;;;;10.07;53.33;101317.16;5014244;28;20029;-75
2022/04/21 00:02:53;;;;;;;11.63;4.38;;;;;;;10.03;53.58;101312.78;5031889;28;20389;-76
2022/04/21 00:05:19;;;;;;;7.70;4.72;;;;;;;10.02;53.47;101311.06;5031830;28;20042;-75
2022/04/21 00:07:47;;;;;;;8.85;4.97;;;;;;;9.99;53.57;101301.38;5031328;28;20036;-75
2022/04/21 00:10:13;;;;;;;7.07;4.13;;;;;;;9.97;53.92;101303.16;5030170;28;20449;-75
2022/04/21 00:12:38;;;;;;;6.28;4.38;;;;;;;9.93;54.41;101304.09;5031668;28;20083;-75
2022/04/21 00:15:05;;;;;;;9.65;4.95;;;;;;;9.92;54.78;101302.34;5031820;28;20420;-75
2022/04/21 00:17:31;;;;;;;8.35;4.30;;;;;;;9.86;54.37;101295.34;5031632;28;20145;-75
2022/04/21 00:19:56;;;;;;;8.07;4.28;;;;;;;9.86;54.13;101308.56;5031866;28;20155;-75
2022/04/21 00:25:06;;;;;;;10.50;4.97;;;;;;;9.80;54.50;101305.13;5031727;28;20048;-75
2022/04/21 00:27:44;;;;;;;9.32;4.50;;;;;;;9.77;53.84;101303.41;5034039;28;20040;-75
2022/04/21 00:30:11;;;;;;;6.47;4.70;;;;;;;9.71;54.14;101311.38;5045234;28;20116;-75
2022/04/21 00:32:39;;;;;;;8.00;5.05;;;;;;;9.66;54.59;101306.13;5047842;28;20047;-75
2022/04/21 00:35:06;;;;;;;7.90;4.55;;;;;;;9.59;54.96;101304.44;5031140;28;20087;-75
2022/04/21 00:37:32;;;;;;;7.15;4.65;;;;;;;9.54;54.70;101308.91;5013735;28;20063;-75
2022/04/21 00:39:57;;;;;;;8.07;4.35;;;;;;;9.48;54.27;101304.56;5031252;28;20041;-75
2022/04/21 00:42:23;;;;;;;9.65;4.57;;;;;;;9.44;55.19;101297.53;5031433;28;20042;-75
2022/04/21 00:44:51;;;;;;;10.30;4.90;;;;;;;9.43;54.92;101302.88;5032521;28;20374;-75
2022/04/21 00:47:18;;;;;;;9.32;5.05;;;;;;;9.40;55.42;101300.25;5054067;28;20128;-75
2022/04/21 00:49:47;;;;;;;12.38;5.07;;;;;;;9.39;55.71;101303.78;5055277;28;20079;-76
2022/04/21 00:52:15;;;;;;;8.50;5.05;;;;;;;9.36;55.84;101296.75;5053955;28;20029;-75
2022/04/21 00:54:41;;;;;;;7.30;4.97;;;;;;;9.35;56.41;101302.06;5053753;28;20048;-75
2022/04/21 00:57:07;;;;;;;6.97;4.93;;;;;;;9.34;56.12;101305.59;5035424;28;20260;-75
2022/04/21 00:59:33;;;;;;;9.60;4.82;;;;;;;9.30;56.56;101303.84;5034013;28;20072;-75
2022/04/21 01:04:46;;;;;;;7.88;4.95;;;;;;;9.22;57.23;101301.28;5035952;28;20064;-75
2022/04/21 01:07:12;;;;;;;11.10;5.35;;;;;;;9.17;56.51;101296.06;5034850;28;20043;-75
2022/04/21 01:09:38;;;;;;;10.10;5.10;;;;;;;9.16;56.63;101306.63;5017133;28;20489;-75
2022/04/21 01:12:10;;;;;;;10.35;5.05;;;;;;;9.12;56.28;101307.53;5034658;28;20044;-75
2022/04/21 01:14:39;;;;;;;17.75;5.05;;;;;;;9.10;57.07;101307.56;5017201;28;20033;-75
2022/04/21 01:17:06;;;;;;;11.80;5.40;;;;;;;9.06;57.49;101300.56;5035013;28;20128;-75
2022/04/21 01:19:31;;;;;;;6.30;4.85;;;;;;;9.06;57.05;101297.91;5033629;28;20121;-75
2022/04/21 01:21:57;;;;;;;11.68;5.22;;;;;;;9.05;57.43;101298.81;5033723;28;20152;-75
2022/04/21 01:24:23;;;;;;;13.95;5.63;;;;;;;8.99;57.54;101289.16;5016989;28;20034;-75
2022/04/21 01:26:49;;;;;;;7.65;5.35;;;;;;;8.99;57.65;101288.28;5035232;28;20029;-75
2022/04/21 01:29:15;;;;;;;13.70;5.78;;;;;;;8.96;57.40;101296.25;5042999;28;20136;-75
2022/04/21 01:31:41;;;;;;;9.23;5.60;;;;;;;8.90;57.96;101291.88;5054584;28;20045;-75
2022/04/21 01:34:06;;;;;;;10.02;5.22;;;;;;;8.91;57.04;101287.47;5038354;28;20468;-75
2022/04/21 01:36:32;;;;;;;10.43;5.50;;;;;;;8.90;57.01;101289.25;5033238;28;20041;-75
2022/04/21 01:41:41;;;;;;;7.75;5.30;;;;;;;8.84;57.66;101281.34;5033358;28;20396;-75
2022/04/21 01:44:07;;;;;;;9.27;5.57;;;;;;;8.82;57.80;101278.72;5032994;28;20121;-75
2022/04/21 01:46:33;;;;;;;10.10;5.60;;;;;;;8.81;57.86;101276.09;5049694;28;20397;-75
2022/04/21 01:48:59;;;;;;;11.18;6.07;;;;;;;8.79;57.88;101277.88;5054182;28;20512;-75
2022/04/21 01:51:24;;;;;;;8.07;5.18;;;;;;;8.78;58.56;101286.69;5054252;28;20040;-75
2022/04/21 01:53:50;;;;;;;6.90;5.20;;;;;;;8.75;58.12;101281.41;5036148;28;20033;-75
2022/04/21 01:56:16;;;;;;;10.32;5.28;;;;;;;8.71;57.53;101277.94;5042435;28;20135;-75
2022/04/21 01:58:42;;;;;;;8.60;5.38;;;;;;;8.70;58.03;101280.56;5033323;28;20041;-75
2022/04/21 02:01:08;;;;;;;8.55;5.25;;;;;;;8.66;58.12;101279.72;5034428;28;20034;-75
2022/04/21 02:03:33;;;;;;;8.35;5.45;;;;;;;8.64;57.51;101278.88;5033967;28;20037;-75
2022/04/21 02:05:59;;;;;;;7.32;5.20;;;;;;;8.61;57.96;101284.16;5034274;28;20037;-75
2022/04/21 02:08:27;;;;;;;13.43;5.63;;;;;;;8.61;57.85;101284.16;5033742;28;20060;-75
2022/04/21 02:10:53;;;;;;;7.63;5.35;;;;;;;8.57;57.61;101275.38;5032469;28;20056;-75
2022/04/21 02:13:19;;;;;;;10.18;5.68;;;;;;;8.55;58.91;101277.16;5016049;28;20040;-75
2022/04/21 02:15:44;;;;;;;8.70;5.38;;;;;;;8.54;58.31;101274.53;5033993;28;20358;-75
2022/04/21 02:18:10;;;;;;;8.88;5.15;;;;;;;8.54;58.14;101279.81;5033853;28;20460;-75
2022/04/21 02:20:35;;;;;;;8.98;5.97;;;;;;;8.53;57.95;101268.38;5033853;28;20502;-75
2022/04/21 02:23:01;;;;;;;13.68;5.35;;;;;;;8.53;57.69;101276.31;5032348;28;20510;-75
2022/04/21 02:25:26;;;;;;;12.07;5.80;;;;;;;8.48;58.31;101274.56;5031962;28;20045;-75
2022/04/21 02:27:52;;;;;;;11.70;5.70;;;;;;;8.45;58.23;101274.59;5041597;28;20064;-75
2022/04/21 02:30:19;;;;;;;6.90;5.22;;;;;;;8.43;58.62;101277.22;5035889;28;20049;-75
2022/04/21 02:32:45;;;;;;;5.78;4.75;;;;;;;8.39;58.58;101280.75;5036685;28;20029;-75
2022/04/21 02:35:12;;;;;;;7.68;5.22;;;;;;;8.36;57.90;101284.28;5016800;28;20033;-75
2022/04/21 02:37:38;;;;;;;8.75;5.18;;;;;;;8.34;58.24;101279.91;5033271;28;20033;-75
2022/04/21 02:40:04;;;;;;;7.95;5.20;;;;;;;8.31;58.22;101279.94;5018085;28;20037;-75
2022/04/21 02:42:30;;;;;;;9.25;5.45;;;;;;;8.27;58.30;101275.53;5031543;28;20033;-75
2022/04/21 02:44:56;;;;;;;9.82;5.80;;;;;;;8.25;57.72;101272.03;5031490;28;20507;-75
2022/04/21 02:47:21;;;;;;;7.13;5.13;;;;;;;8.21;58.08;101273.81;5032706;28;20033;-75
2022/04/21 02:49:49;;;;;;;10.45;5.63;;;;;;;8.17;58.13;101272.94;5032819;28;20033;-75
2022/04/21 02:52:15;;;;;;;10.35;5.30;;;;;;;8.14;57.87;101272.09;5031048;28;20048;-75
2022/04/21 02:57:30;;;;;;;7.43;5.28;;;;;;;8.10;58.38;101268.56;5032544;28;20350;-75
2022/04/21 03:00:01;;;;;;;7.70;5.07;;;;;;;8.09;58.37;101277.38;5033865;28;20099;-75
2022/04/21 03:02:27;;;;;;;7.63;4.93;;;;;;;8.05;58.42;101272.13;5031103;28;20029;-75
2022/04/21 03:04:54;;;;;;;9.20;5.30;;;;;;;8.04;58.00;101278.31;5032302;28;20048;-76
2022/04/21 03:07:23;;;;;;;8.40;4.65;;;;;;;8.01;58.74;101275.66;5032279;28;20025;-76
2022/04/21 03:09:55;;;;;;;11.77;5.80;;;;;;;7.95;58.68;101272.16;5031784;28;20033;-76
2022/04/21 03:12:26;;;;;;;9.10;5.25;;;;;;;7.92;59.10;101271.31;5030314;28;20119;-76
2022/04/21 03:14:52;;;;;;;;;;;;;;;8.01;56.83;101273.00;5032629;28;20359;-76
2022/04/21 03:17:18;;;;;;;15.80;5.35;;;;;;;7.91;57.76;101266.91;5031993;28;19932;-76
2022/04/21 03:19:43;;;;;;;9.95;5.20;;;;;;;7.89;58.42;101260.78;5028258;28;20384;-76
2022/04/21 03:24:55;;;;;;;8.60;5.30;;;;;;;7.84;58.74;101258.16;5030712;28;20448;-76
2022/04/21 03:27:20;;;;;;;11.32;5.95;;;;;;;7.82;59.13;101270.47;5034476;28;20038;-76
2022/04/21 03:29:46;;;;;;;8.40;5.05;;;;;;;7.79;58.84;101266.94;5014616;28;20120;-76
2022/04/21 03:32:13;;;;;;;9.45;5.53;;;;;;;7.78;59.34;101270.47;5030509;28;20025;-76
2022/04/21 03:34:40;;;;;;;10.80;5.60;;;;;;;7.75;58.86;101264.31;5050844;28;20033;-76
2022/04/21 03:37:10;;;;;;;10.07;5.40;;;;;;;7.73;59.14;101265.22;5051548;28;20135;-75
2022/04/21 03:39:37;;;;;;;7.32;5.32;;;;;;;7.70;59.13;101265.22;5050115;28;20147;-75
2022/04/21 03:42:07;;;;;;;8.85;5.45;;;;;;;7.68;58.87;101272.25;5013944;28;20053;-75
2022/04/21 03:44:39;;;;;;;9.55;5.35;;;;;;;7.64;58.40;101268.78;5030930;28;20104;-75
2022/04/21 03:47:06;;;;;;;9.07;5.40;;;;;;;7.61;59.03;101270.53;5031560;28;20041;-75
2022/04/21 03:49:31;;;;;;;10.48;5.50;;;;;;;7.58;59.14;101274.03;5031404;28;20060;-75
2022/04/21 03:51:57;;;;;;;11.85;5.75;;;;;;;7.55;59.30;101279.34;5030230;28;20057;-75
2022/04/21 03:54:24;;;;;;;8.27;5.40;;;;;;;7.52;59.06;101276.72;5029527;28;20025;-76
2022/04/21 03:56:50;;;;;;;8.27;5.53;;;;;;;7.51;59.33;101282.84;5029818;28;20038;-76
2022/04/21 03:59:17;;;;;;;9.05;5.45;;;;;;;7.48;59.49;101274.97;5031314;28;20021;-75
2022/04/21 04:01:43;;;;;;;8.98;5.50;;;;;;;7.50;59.30;101275.84;5031244;28;20057;-75
2022/04/21 04:04:08;;;;;;;11.38;5.45;;;;;;;7.47;59.07;101279.34;5029952;28;20531;-75
2022/04/21 04:12:03;;;;;;;13.00;5.38;;;;;;;7.44;58.88;101282.00;5030410;28;20091;-76
2022/04/21 04:14:29;;;;;;;8.38;5.30;;;;;;;7.45;59.47;101282.88;5029525;28;20454;-76
2022/04/21 04:16:54;;;;;;;8.95;5.18;;;;;;;7.43;58.99;101280.22;5031334;28;20032;-76
2022/04/21 04:19:20;;;;;;;10.23;5.55;;;;;;;7.40;59.66;101282.00;5038915;28;20115;-76
2022/04/21 04:21:46;;;;;;;7.55;5.22;;;;;;;7.39;59.39;101282.88;5031687;28;20052;-76
2022/04/21 04:24:11;;;;;;;9.73;5.85;;;;;;;7.37;59.08;101284.63;5030397;28;20037;-76
2022/04/21 04:26:37;;;;;;;12.90;5.65;;;;;;;7.37;59.81;101282.00;5014821;28;20591;-76
2022/04/21 04:29:03;;;;;;;12.98;4.97;;;;;;;7.35;59.97;101281.13;5038993;28;20043;-76
2022/04/21 04:31:28;;;;;;;14.40;5.50;;;;;;;7.32;59.43;101282.91;5050138;28;20033;-76
2022/04/21 04:33:54;;;;;;;8.38;5.22;;;;;;;7.30;59.33;101284.66;5030383;28;20036;-76
2022/04/21 04:36:19;;;;;;;8.55;4.97;;;;;;;7.31;59.66;101285.53;5044810;28;20045;-76
2022/04/21 04:38:47;;;;;;;8.45;5.28;;;;;;;7.30;59.78;101291.69;5029306;28;20113;-76
2022/04/21 04:43:56;;;;;;;10.65;6.15;;;;;;;7.32;59.97;101287.28;5030611;28;20040;-76
2022/04/21 04:46:40;;;;;;;8.65;5.70;;;;;;;7.31;59.48;101289.03;5046518;28;20033;-76
2022/04/21 04:49:07;;;;;;;10.63;5.43;;;;;;;7.29;59.83;101293.44;5050363;28;20041;-76
2022/04/21 04:51:34;;;;;;;8.20;5.57;;;;;;;7.29;59.83;101292.53;5049308;28;20028;-76
2022/04/21 04:54:01;;;;;;;9.88;5.55;;;;;;;7.28;60.32;101288.16;5032049;28;20377;-76
2022/04/21 04:56:27;;;;;;;8.23;5.53;;;;;;;7.27;60.10;101292.56;5031269;28;20207;-76
2022/04/21 04:58:53;;;;;;;12.20;5.60;;;;;;;7.26;60.11;101290.78;5030562;28;20025;-76
2022/04/21 05:01:32;;;;;;;8.90;4.95;;;;;;;7.27;59.89;101294.28;5030546;28;20114;-75
2022/04/21 05:04:00;;;;;;;8.85;5.50;;;;;;;7.26;60.06;101298.69;5029213;28;20033;-75
2022/04/21 05:06:26;;;;;;;9.55;5.55;;;;;;;7.26;59.69;101300.44;5029040;28;20064;-75
2022/04/21 05:08:52;;;;;;;14.52;6.13;;;;;;;7.24;60.26;101297.81;5012558;28;20040;-76
2022/04/21 05:11:17;;;;;;;8.05;5.97;;;;;;;7.26;59.97;101297.81;5028912;28;20037;-76
2022/04/21 05:13:44;;;;;;;11.32;5.68;;;;;;;7.27;60.52;101299.56;5031789;28;20039;-76
2022/04/21 05:16:09;;;;;;;9.55;6.03;;;;;;;7.27;60.48;101289.94;5033374;28;20099;-76
2022/04/21 05:18:35;;;;;;;10.60;6.57;;;;;;;7.30;60.79;101297.81;5029177;28;20033;-76
2022/04/21 05:21:01;;;;;;;13.30;5.90;;;;;;;7.33;60.73;101292.53;5030425;28;20468;-76
2022/04/21 05:23:33;;;;;;;10.52;5.22;;;;;;;7.36;60.86;101291.66;5028948;28;20044;-76
2022/04/21 05:25:58;;;;;;;9.68;5.35;;;;;;;7.40;60.15;101276.75;5046374;28;20094;-76
2022/04/21 05:28:24;;;;;;;8.52;5.68;;;;;;;7.43;60.36;101285.50;5032735;28;20440;-76
2022/04/21 05:30:58;;;;;;;9.93;6.10;;;;;;;7.48;60.19;101290.75;5029382;28;20025;-76
2022/04/21 05:33:25;;;;;;;13.98;5.38;;;;;;;7.51;60.03;101280.22;5040808;28;20068;-76
2022/04/21 05:35:51;;;;;;;12.02;6.32;;;;;;;7.56;60.37;101286.34;5034370;28;20500;-76
2022/04/21 05:38:20;;;;;;;9.25;6.57;;;;;;;7.61;60.23;101287.22;5015945;28;20469;-76
2022/04/21 05:40:45;;;;;;;14.38;6.22;;;;;;;7.66;59.84;101282.81;5034189;28;20036;-76
2022/04/21 05:43:14;;;;;;;16.35;5.85;;;;;;;7.72;59.33;101292.47;5014997;28;20144;-76
2022/04/21 05:45:40;;;;;;;11.48;6.93;;;;;;;7.77;59.85;101282.78;5033672;28;20044;-76
2022/04/21 05:48:06;;;;;;;15.55;6.32;;;;;;;7.83;59.86;101292.44;5044427;28;20445;-76
2022/04/21 05:50:32;;;;;;;23.98;6.38;;;;;;;7.88;60.21;101295.94;5032032;28;20033;-76
2022/04/21 05:53:02;;;;;;;15.63;6.20;;;;;;;7.92;60.34;101285.38;5033872;28;20370;-76
2022/04/21 05:55:29;;;;;;;9.45;6.18;;;;;;;7.97;60.22;101288.00;5036520;28;20052;-76
2022/04/21 05:57:55;;;;;;;9.27;6.03;;;;;;;8.04;60.67;101289.72;5052014;28;20152;-76
2022/04/21 06:00:20;;;;;;;8.48;6.43;;;;;;;8.10;59.75;101283.53;5033650;28;20095;-76
2022/04/21 06:02:46;;;;;;;11.15;6.63;;;;;;;8.17;59.70;101285.25;5033696;28;20045;-76
2022/04/21 06:05:12;;;;;;;12.07;6.30;;;;;;;8.24;59.65;101279.06;5032518;28;20473;-76
2022/04/21 06:07:37;;;;;;;12.02;6.40;;;;;;;8.32;59.65;101281.66;5033290;28;20044;-75
2022/04/21 06:10:03;;;;;;;10.65;6.90;;;;;;;8.38;60.06;101284.25;5032129;28;20041;-75
2022/04/21 06:12:29;;;;;;;13.35;7.20;;;;;;;8.46;59.71;101279.88;5031756;28;20041;-74
2022/04/21 06:14:55;;;;;;;13.82;6.72;;;;;;;8.52;59.32;101286.84;5032377;28;20044;-75
2022/04/21 06:17:20;;;;;;;11.48;7.10;;;;;;;8.57;59.73;101283.28;5033338;28;20454;-74
2022/04/21 06:19:47;;;;;;;10.32;6.55;;;;;;;8.65;59.34;101274.44;5014768;28;20060;-75
2022/04/21 06:22:13;;;;;;;17.88;6.35;;;;;;;8.73;59.43;101277.91;5033082;28;20117;-75
2022/04/21 06:24:39;;;;;;;10.15;6.60;;;;;;;8.80;59.10;101283.16;5033341;28;20041;-75
2022/04/21 06:27:04;;;;;;;11.45;6.50;;;;;;;8.90;59.03;101278.69;5034719;28;20457;-75
2022/04/21 06:29:30;;;;;;;18.05;6.55;;;;;;;8.98;58.89;101274.22;5039822;28;20063;-75
2022/04/21 06:31:56;;;;;;;9.93;6.38;;;;;;;9.08;58.48;101274.13;5030154;28;20040;-75
2022/04/21 06:34:22;;;;;;;9.38;6.13;;;;;;;9.16;58.41;101278.44;5051179;28;20449;-74
2022/04/21 06:36:48;;;;;;;16.67;6.43;;;;;;;9.23;58.52;101268.69;5052626;28;20033;-75
2022/04/21 06:39:14;;;;;;;9.55;6.25;;;;;;;9.32;57.99;101271.25;5052601;28;20043;-74
2022/04/21 06:41:40;;;;;;;10.52;6.47;;;;;;;9.42;57.53;101269.38;5052946;28;20041;-75
2022/04/21 06:49:33;;;;;;;8.68;5.95;;;;;;;9.71;57.05;101260.25;5031622;28;20528;-75
2022/04/21 06:51:58;;;;;;;8.20;5.63;;;;;;;9.82;56.61;101261.03;5031618;28;20063;-74
2022/04/21 06:54:24;;;;;;;9.90;5.90;;;;;;;9.93;56.70;101263.53;5031206;28;20535;-74
2022/04/21 06:56:49;;;;;;;10.80;6.30;;;;;;;10.03;55.91;101260.75;5032415;28;20461;-74
2022/04/21 06:59:16;;;;;;;9.18;5.85;;;;;;;10.10;56.37;101259.75;5032564;28;20029;-74
2022/04/21 07:01:41;;;;;;;9.20;5.55;;;;;;;10.22;55.80;101264.03;5023661;28;20554;-74
2022/04/21 07:04:07;;;;;;;10.60;6.10;;;;;;;10.32;55.88;101256.88;5052590;28;20076;-75
2022/04/21 07:06:33;;;;;;;14.50;5.95;;;;;;;10.43;55.41;101252.28;5051292;28;20033;-74
2022/04/21 07:08:58;;;;;;;8.43;4.45;;;;;;;10.60;54.65;101264.41;5034685;28;20041;-74
2022/04/21 07:11:24;;;;;;;9.60;5.28;;;;;;;10.69;54.69;101249.25;5051363;28;20044;-74
2022/04/21 07:13:49;;;;;;;10.10;5.38;;;;;;;10.80;54.17;101254.38;5035543;28;20124;-74
2022/04/21 07:16:15;;;;;;;11.20;5.63;;;;;;;10.91;54.68;101264.81;5033455;28;20456;-74
2022/04/21 07:18:40;;;;;;;9.00;5.95;;;;;;;11.00;53.96;101259.31;5030871;28;20124;-74
2022/04/21 07:21:09;;;;;;;10.07;5.75;;;;;;;11.10;54.06;101260.03;5031374;28;20033;-74
2022/04/21 07:23:35;;;;;;;13.23;5.57;;;;;;;11.21;53.40;101260.75;5032571;28;20440;-75
2022/04/21 07:26:00;;;;;;;10.50;5.75;;;;;;;11.31;53.78;101264.97;5014475;28;20121;-74
2022/04/21 07:28:26;;;;;;;8.93;5.30;;;;;;;11.44;53.59;101259.44;5038104;28;20501;-74
2022/04/21 07:30:51;;;;;;;12.57;5.95;;;;;;;11.56;53.26;101261.88;5051984;28;20507;-74
2022/04/21 07:33:18;;;;;;;13.02;5.68;;;;;;;11.66;52.68;101268.75;5042010;28;20037;-74
2022/04/21 07:35:43;;;;;;;6.88;5.30;;;;;;;11.78;52.82;101272.94;5032580;28;20492;-74
2022/04/21 07:38:10;;;;;;;7.15;5.13;;;;;;;11.91;52.37;101273.59;5030940;28;20037;-74
2022/04/21 07:40:36;;;;;;;9.65;5.45;;;;;;;12.04;51.71;101269.78;5031091;28;20025;-74
2022/04/21 07:43:07;;;;;;;9.20;5.40;;;;;;;12.15;51.79;101262.47;5032354;28;20129;-74
2022/04/21 07:45:41;;;;;;;10.20;5.70;;;;;;;12.29;50.80;101262.19;5021818;28;20030;-74
2022/04/21 07:48:07;;;;;;;7.45;5.15;;;;;;;12.41;51.12;101267.22;5030871;28;20465;-74
2022/04/21 07:50:33;;;;;;;8.25;5.38;;;;;;;12.51;50.77;101259.88;5032257;28;20037;-74
2022/04/21 07:53:14;;;;;;;11.32;4.70;;;;;;;12.59;50.11;101265.03;5032147;28;20116;-74
2022/04/21 07:55:46;;;;;;;11.35;5.40;;;;;;;12.69;50.19;101261.25;5030926;28;20049;-75
2022/04/21 07:58:13;;;;;;;8.60;4.53;;;;;;;12.83;50.27;101267.13;5032099;28;20107;-75
2022/04/21 08:00:40;;;;;;;7.70;5.10;;;;;;;12.95;49.09;101265.91;5032003;28;20055;-75
2022/04/21 08:03:09;;;;;;;7.75;4.70;;;;;;;13.05;49.52;101264.75;5032110;28;20049;-74
2022/04/21 08:05:35;;;;;;;6.32;4.55;;;;;;;13.16;49.32;101258.31;5032075;28;20466;-75
2022/04/21 08:08:02;;;;;;;10.15;4.85;;;;;;;13.30;49.47;101261.50;5031801;28;20041;-75
2022/04/21 08:10:28;;;;;;;7.55;4.32;;;;;;;13.43;48.69;101259.41;5030706;28;20070;-75
2022/04/21 08:12:57;;;;;;;12.10;5.75;;;;;;;13.51;49.20;101268.94;5030468;28;20061;-75
2022/04/21 08:15:26;;;;;;;9.13;5.20;;;;;;;13.60;48.14;101267.81;5032148;28;20032;-75
2022/04/21 08:17:54;;;;;;;9.50;5.43;;;;;;;13.61;47.77;101263.34;5031706;28;20044;-75
2022/04/21 08:20:20;;;;;;;6.60;4.72;;;;;;;13.67;48.05;101260.50;5031120;28;20048;-75
2022/04/21 08:22:46;;;;;;;11.32;5.13;;;;;;;13.79;47.91;101265.50;5029657;28;20036;-75
2022/04/21 08:33:24;;;;;;;8.07;4.47;;;;;;;14.18;46.88;101268.78;5032147;28;20091;-75
2022/04/21 08:35:50;;;;;;;7.07;4.28;;;;;;;14.23;46.76;101268.66;5013831;28;20037;-75
2022/04/21 08:38:17;;;;;;;7.53;4.60;;;;;;;14.30;46.15;101272.00;5031188;28;20045;-75
2022/04/21 08:40:54;;;;;;;8.25;4.05;;;;;;;14.34;46.47;101266.53;5031403;28;20021;-75
2022/04/21 08:43:20;;;;;;;9.27;4.00;;;;;;;14.47;46.81;101256.38;5028826;28;20029;-75
2022/04/21 08:45:47;;;;;;;6.40;4.20;;;;;;;14.63;46.15;101270.09;5035830;28;20041;-76
2022/04/21 08:48:18;;;;;;;10.43;4.32;;;;;;;14.76;47.00;101260.81;5033773;28;20123;-77
2022/04/21 08:50:45;;;;;;;14.18;4.10;;;;;;;14.88;46.45;101259.50;5031364;28;20413;-75
2022/04/21 08:53:13;;;;;;;6.90;4.00;;;;;;;14.97;45.91;101255.69;5029363;28;20037;-78
2022/04/21 08:55:39;;;;;;;5.68;4.45;;;;;;;15.03;45.52;101252.78;5035357;28;20067;-76
2022/04/21 08:58:05;;;;;;;8.52;3.92;;;;;;;15.12;45.06;101251.63;5032750;28;20036;-77
2022/04/21 09:00:31;;;;;;;9.07;3.78;;;;;;;15.24;44.44;101243.19;5047502;28;20509;-76
2022/04/21 09:02:58;;;;;;;7.53;3.88;;;;;;;15.36;44.20;101237.44;5031184;28;20073;-76
2022/04/21 09:05:27;;;;;;;6.00;3.90;;;;;;;15.46;43.51;101244.19;5031047;28;20044;-78
2022/04/21 09:07:53;;;;;;;8.18;3.60;;;;;;;15.54;42.85;101245.72;5032893;28;20060;-77
2022/04/21 09:10:20;;;;;;;8.95;4.03;;;;;;;15.61;42.88;101232.06;5033716;28;20025;-77
2022/04/21 09:13:15;;;;;;;7.18;3.72;;;;;;;15.82;43.65;101241.09;5016457;28;20159;-78
2022/04/21 09:15:43;;;;;;;6.88;3.97;;;;;;;15.90;42.78;101235.50;5030506;28;20045;-76
2022/04/21 09:18:13;;;;;;;12.30;3.92;;;;;;;16.07;42.24;101238.41;5035017;28;20060;-76
2022/04/21 09:20:43;;;;;;;7.13;3.50;;;;;;;16.12;40.06;101241.78;5034458;28;20155;-74
2022/04/21 09:23:13;;;;;;;5.40;3.40;;;;;;;16.17;40.58;101240.69;5034350;28;20094;-75
2022/04/21 09:25:50;;;;;;;4.82;3.35;;;;;;;16.32;40.60;101234.78;5034149;28;20056;-76
2022/04/21 09:28:27;;;;;;;5.70;3.80;;;;;;;16.45;40.24;101232.50;5037622;28;20076;-80
2022/04/21 09:30:58;;;;;;;6.78;3.75;;;;;;;16.53;39.24;101231.22;5036654;28;20179;-78
2022/04/21 09:33:53;;;;;;;;;;;;;;;16.60;39.73;101228.31;5032802;28;20033;-78
2022/04/21 09:36:19;;;;;;;5.47;3.05;;;;;;;16.59;38.26;101219.41;5024251;28;19920;-78
2022/04/21 09:38:58;;;;;;;7.38;3.40;;;;;;;16.71;39.55;101221.56;5033602;28;20056;-78
2022/04/21 09:41:28;;;;;;;5.85;3.28;;;;;;;16.92;38.75;101219.00;5023310;28;20029;-77
2022/04/21 09:46:07;;;;;;;7.57;2.78;;;;;;;17.03;35.87;101224.75;5033947;28;20505;-78
2022/04/21 09:46:51;;;;;;;5.57;2.80;;;;;;;16.99;33.83;101220.47;5035666;28;20048;-79
2022/04/21 09:49:36;;;;;;;5.32;2.28;;;;;;;17.04;35.02;101228.31;5045652;28;20037;-78
2022/04/21 09:52:02;;;;;;;3.83;2.33;;;;;;;17.22;32.51;101221.28;5047900;28;20060;-77
2022/04/21 09:54:29;;;;;;;2.33;1.77;;;;;;;17.22;31.20;101219.47;5049445;28;20041;-78
2022/04/21 09:56:55;;;;;;;6.93;1.85;;;;;;;17.12;31.65;101221.69;5047652;28;20120;-78
2022/04/21 09:59:21;;;;;;;4.32;2.17;;;;;;;17.14;31.51;101217.13;5049901;28;20048;-78
2022/04/21 10:01:50;;;;;;;3.78;1.92;;;;;;;17.23;31.76;101210.50;5031843;28;20044;-78
2022/04/21 10:04:18;;;;;;;4.25;2.28;;;;;;;17.36;30.68;101201.00;5048966;28;20053;-78
2022/04/21 10:06:44;;;;;;;3.05;2.22;;;;;;;17.47;30.99;101203.19;5050035;28;20037;-78
2022/04/21 10:09:11;;;;;;;3.60;2.22;;;;;;;17.66;32.10;101205.94;5031432;28;20045;-78
2022/04/21 10:11:38;;;;;;;6.68;2.13;;;;;;;17.76;30.67;101201.03;5048570;28;20048;-78
2022/04/21 10:14:06;;;;;;;6.75;2.30;;;;;;;17.87;31.65;101198.72;5031215;28;20564;-77
2022/04/21 10:16:32;;;;;;;5.28;2.22;;;;;;;18.11;30.81;101198.53;5031761;28;20068;-78
2022/04/21 10:19:00;;;;;;;5.63;2.38;;;;;;;18.20;30.39;101190.03;5047105;28;20044;-78
2022/04/21 10:21:48;;;;;;;11.15;2.40;;;;;;;18.32;30.25;101193.94;5049339;28;20024;-78
2022/04/21 10:24:20;;;;;;;7.43;2.30;;;;;;;18.57;30.98;101190.91;5047721;28;20043;-81
2022/04/21 10:26:46;;;;;;;4.15;2.03;;;;;;;18.68;28.04;101183.22;5047027;28;20029;-81
2022/04/21 10:29:12;;;;;;;3.33;2.00;;;;;;;18.67;27.68;101178.81;5014882;28;20461;-81
2022/04/21 10:31:59;;;;;;;4.53;2.00;;;;;;;18.73;28.34;101183.84;5035268;28;20060;-81
2022/04/21 10:34:37;;;;;;;6.22;1.80;;;;;;;18.88;28.33;101179.53;5047967;28;20043;-81
2022/04/21 10:37:20;;;;;;;3.40;1.67;;;;;;;19.01;28.44;101172.59;5048479;28;20461;-81
2022/04/21 10:40:03;;;;;;;3.90;2.03;;;;;;;19.16;28.39;101172.75;5047496;28;20044;-79
2022/04/21 10:42:29;;;;;;;4.75;1.95;;;;;;;19.11;26.94;101171.19;5031402;28;20041;-79
2022/04/21 10:44:56;;;;;;;3.60;2.20;;;;;;;19.25;28.12;101172.25;5031160;28;20040;-79
2022/04/21 10:47:34;;;;;;;4.28;2.20;;;;;;;19.42;28.94;101171.38;5030654;28;20025;-79
2022/04/21 10:50:19;;;;;;;5.90;2.10;;;;;;;19.52;27.36;101153.81;5047698;28;20039;-79
2022/04/21 10:58:32;;;;;;;8.48;2.10;;;;;;;19.94;28.36;101152.41;5030658;28;20137;-80
2022/04/21 11:01:16;;;;;;;3.28;2.20;;;;;;;20.15;28.77;101147.63;5014247;28;20095;-79
2022/04/21 11:03:44;;;;;;;4.50;2.38;;;;;;;20.28;26.83;101150.53;5015644;28;20040;-79
2022/04/21 11:06:16;;;;;;;4.88;2.30;;;;;;;20.23;27.98;101152.56;5030244;28;20044;-79
2022/04/21 11:08:43;;;;;;;5.57;2.67;;;;;;;20.15;27.03;101150.31;5030490;28;20045;-79
2022/04/21 11:11:09;;;;;;;6.30;2.50;;;;;;;20.25;27.33;101145.28;5014092;28;20124;-79
2022/04/21 11:14:02;;;;;;;9.88;2.50;;;;;;;20.51;28.00;101144.66;5028403;28;20674;-79
2022/04/21 11:16:40;;;;;;;9.10;2.55;;;;;;;20.75;28.06;101147.75;5047240;28;20068;-81
2022/04/21 11:19:37;;;;;;;7.28;2.80;;;;;;;20.88;27.61;101147.88;5016610;28;20394;-81
2022/04/21 11:22:08;;;;;;;4.57;2.47;;;;;;;21.10;27.32;101136.69;5048715;28;20036;-81
2022/04/21 11:24:56;;;;;;;9.65;2.40;;;;;;;21.26;26.55;101126.69;5033568;28;20033;-81
2022/04/21 11:27:22;;;;;;;4.25;2.47;;;;;;;21.35;25.62;101125.25;5034282;28;20063;-82
2022/04/21 11:29:48;;;;;;;3.65;2.22;;;;;;;21.31;26.59;101121.00;5030134;28;20049;-82
2022/04/21 11:32:18;;;;;;;5.90;2.75;;;;;;;21.20;25.09;101124.38;5015613;28;20373;-82
2022/04/21 11:35:00;;;;;;;4.80;2.50;;;;;;;21.21;26.55;101103.69;5016816;28;20025;-82
2022/04/21 11:37:51;;;;;;;6.22;2.30;;;;;;;21.42;25.91;101118.56;5031994;28;20140;-82
2022/04/21 11:40:21;;;;;;;9.23;2.65;;;;;;;21.41;25.02;101111.44;5031545;28;20492;-82
2022/04/21 11:42:49;;;;;;;4.63;2.50;;;;;;;21.58;25.62;101102.25;5013921;28;20026;-82
2022/04/21 11:45:22;;;;;;;4.63;2.20;;;;;;;21.89;24.93;101111.09;5019407;28;20037;-82
2022/04/21 11:47:48;;;;;;;3.75;2.25;;;;;;;22.12;24.75;101098.78;5031903;28;20029;-80
2022/04/21 11:50:24;;;;;;;7.20;2.53;;;;;;;22.21;24.67;101091.97;5031081;28;20330;-80
2022/04/21 11:52:52;;;;;;;4.68;2.80;;;;;;;22.22;23.58;101096.38;5029834;28;20034;-80
2022/04/21 11:55:19;;;;;;;5.35;2.22;;;;;;;22.40;25.62;101105.06;5032667;28;20053;-80
2022/04/21 11:57:45;;;;;;;3.75;2.10;;;;;;;22.51;24.87;101097.97;5013737;28;20813;-80
2022/04/21 12:00:13;;;;;;;5.00;2.33;;;;;;;22.64;23.88;101087.19;5013458;28;20042;-80
2022/04/21 12:08:20;;;;;;;5.85;2.55;;;;;;;23.10;23.42;101088.59;5048480;28;20045;-80
2022/04/21 12:10:46;;;;;;;3.80;2.28;;;;;;;23.14;23.01;101087.38;5014521;28;20033;-81
2022/04/21 12:13:12;;;;;;;4.28;2.20;;;;;;;23.22;23.80;101076.00;5029238;28;20041;-80
2022/04/21 12:15:39;;;;;;;8.95;2.30;;;;;;;23.35;22.85;101079.59;5011374;28;20044;-80
2022/04/21 12:18:05;;;;;;;7.63;2.90;;;;;;;23.51;22.94;101080.19;5013723;28;20427;-81